createdAt,value
2022-08-05T00:00:52.378Z,54.46
2022-08-05T00:03:57.538Z,54.37
2022-08-05T00:07:00.433Z,54.90
2022-08-05T00:10:27.130Z,55.71
2022-08-05T00:13:39.335Z,55.49
2022-08-05T00:16:52.650Z,55.50
2022-08-05T00:20:02.849Z,55.72
2022-08-05T00:23:12.754Z,56.53
2022-08-05T00:26:17.069Z,56.07
2022-08-05T00:29:25.237Z,56.00
2022-08-05T00:32:28.334Z,56.33
2022-08-05T00:35:33.414Z,55.09
2022-08-05T00:38:36.569Z,55.52
2022-08-05T00:41:51.664Z,54.77
2022-08-05T00:44:58.093Z,54.76
2022-08-05T00:48:05.707Z,55.14
2022-08-05T00:51:50.001Z,54.95
2022-08-05T00:54:33.115Z,52.66
2022-08-05T00:57:38.381Z,47.31
2022-08-05T01:00:58.716Z,45.06
2022-08-05T01:04:01.484Z,44.44
2022-08-05T01:07:05.777Z,44.09
2022-08-05T01:10:11.417Z,44.54
2022-08-05T01:13:27.587Z,44.97
2022-08-05T01:16:52.327Z,45.34
2022-08-05T01:20:04.278Z,45.61
2022-08-05T01:23:22.760Z,45.78
2022-08-05T01:26:45.400Z,46.47
2022-08-05T01:29:57.498Z,47.18
2022-08-05T01:33:01.630Z,47.00
2022-08-05T01:36:12.698Z,47.66
2022-08-05T01:39:45.998Z,47.92
2022-08-05T01:42:44.053Z,48.21
2022-08-05T01:45:48.293Z,48.29
2022-08-05T01:49:01.603Z,48.75
2022-08-05T01:52:25.360Z,48.92
2022-08-05T01:55:31.153Z,49.62
2022-08-05T01:58:45.120Z,49.68
2022-08-05T02:01:54.750Z,50.03
2022-08-05T02:05:01.741Z,50.09
2022-08-05T02:08:07.237Z,50.47
2022-08-05T02:11:12.730Z,50.73
2022-08-05T02:14:21.899Z,51.09
2022-08-05T02:18:28.108Z,52.29
2022-08-05T02:21:02.381Z,52.74
2022-08-05T02:24:10.054Z,53.42
2022-08-05T02:27:14.523Z,54.42
2022-08-05T02:30:18.178Z,54.75
2022-08-05T02:33:36.008Z,55.57
2022-08-05T02:36:45.089Z,55.25
2022-08-05T02:39:51.755Z,56.43
2022-08-05T02:42:56.678Z,56.29
2022-08-05T02:46:01.077Z,56.77
2022-08-05T02:49:07.366Z,57.24
2022-08-05T02:52:29.727Z,57.69
2022-08-05T02:55:53.832Z,58.17
2022-08-05T02:59:00.083Z,58.49
2022-08-05T03:02:03.846Z,58.83
2022-08-05T03:05:10.648Z,58.83
2022-08-05T03:08:16.545Z,59.38
2022-08-05T03:11:53.588Z,59.21
2022-08-05T03:14:48.168Z,59.42
2022-08-05T03:17:54.108Z,59.05
2022-08-05T03:21:00.185Z,59.05
2022-08-05T03:24:04.116Z,58.92
2022-08-05T03:27:06.906Z,59.35
2022-08-05T03:30:11.256Z,59.91
2022-08-05T03:33:14.218Z,60.52
2022-08-05T03:36:30.374Z,60.19
2022-08-05T03:39:47.175Z,60.67
2022-08-05T03:42:56.595Z,60.07
2022-08-05T03:46:01.413Z,60.88
2022-08-05T03:49:04.396Z,61.43
2022-08-05T03:52:39.199Z,61.11
2022-08-05T03:56:09.958Z,61.58
2022-08-05T03:59:10.910Z,61.66
2022-08-05T04:02:17.602Z,61.65
2022-08-05T04:05:40.198Z,61.55
2022-08-05T04:08:48.636Z,61.94
2022-08-05T04:11:52.628Z,62.92
2022-08-05T04:14:57.569Z,62.65
2022-08-05T04:18:03.247Z,62.60
2022-08-05T04:21:07.257Z,63.31
2022-08-05T04:24:19.293Z,62.95
2022-08-05T04:27:41.793Z,62.46
2022-08-05T04:30:46.448Z,62.63
2022-08-05T04:34:18.238Z,63.17
2022-08-05T04:37:13.800Z,62.97
2022-08-05T04:40:19.497Z,62.64
2022-08-05T04:43:22.482Z,63.12
2022-08-05T04:46:28.442Z,62.79
2022-08-05T04:50:01.092Z,61.78
2022-08-05T04:52:59.831Z,60.62
2022-08-05T04:56:33.269Z,60.87
2022-08-05T04:59:39.232Z,60.96
2022-08-05T05:02:43.714Z,61.16
2022-08-05T05:06:40.068Z,60.35
2022-08-05T05:09:09.853Z,59.63
2022-08-05T05:12:18.425Z,59.66
2022-08-05T05:15:56.421Z,59.53
2022-08-05T05:19:02.563Z,58.92
2022-08-05T05:22:24.101Z,59.08
2022-08-05T05:25:32.475Z,59.49
2022-08-05T05:28:42.631Z,59.58
2022-08-05T05:31:47.631Z,59.75
2022-08-05T05:34:52.435Z,58.94
2022-08-05T05:37:59.511Z,58.94
2022-08-05T05:41:03.193Z,59.37
2022-08-05T05:44:35.848Z,58.11
2022-08-05T05:47:30.207Z,58.25
2022-08-05T05:50:53.341Z,57.95
2022-08-05T05:53:59.575Z,57.85
2022-08-05T05:57:03.057Z,57.14
2022-08-05T06:00:11.040Z,56.25
2022-08-05T06:03:40.239Z,57.18
2022-08-05T06:06:37.434Z,56.60
2022-08-05T06:10:00.107Z,56.64
2022-08-05T06:13:04.978Z,56.18
2022-08-05T06:16:29.649Z,56.56
2022-08-05T06:19:34.457Z,56.28
2022-08-05T06:22:38.246Z,55.17
2022-08-05T06:26:13.252Z,54.87
2022-08-05T06:29:25.434Z,54.93
2022-08-05T06:32:30.402Z,53.73
2022-08-05T06:36:03.463Z,52.63
2022-08-05T06:38:56.573Z,50.39
2022-08-05T06:42:04.073Z,47.96
2022-08-05T06:45:08.937Z,46.76
2022-08-05T06:48:55.760Z,46.51
2022-08-05T06:51:36.134Z,46.96
2022-08-05T06:54:43.632Z,47.79
2022-08-05T06:58:02.900Z,47.38
2022-08-05T07:01:14.178Z,48.50
2022-08-05T07:04:25.035Z,49.24
2022-08-05T07:07:43.045Z,49.23
2022-08-05T07:10:53.164Z,48.74
2022-08-05T07:14:20.074Z,48.88
2022-08-05T07:17:59.534Z,48.59
2022-08-05T07:20:47.818Z,47.70
2022-08-05T07:23:52.225Z,47.49
2022-08-05T07:26:55.278Z,47.15
2022-08-05T07:30:25.373Z,45.65
2022-08-05T07:33:37.090Z,45.32
2022-08-05T07:36:42.333Z,45.47
2022-08-05T07:40:04.383Z,45.16
2022-08-05T07:43:14.767Z,43.55
2022-08-05T07:46:26.014Z,42.64
2022-08-05T07:49:29.170Z,39.89
2022-08-05T07:52:33.342Z,39.86
2022-08-05T07:55:44.245Z,40.80
2022-08-05T07:58:59.559Z,39.09
2022-08-05T08:02:03.141Z,37.15
2022-08-05T08:05:06.879Z,38.69
2022-08-05T08:08:12.360Z,37.23
2022-08-05T08:11:15.971Z,38.12
2022-08-05T08:14:19.187Z,37.63
2022-08-05T08:17:22.248Z,37.44
2022-08-05T08:21:00.312Z,36.88
2022-08-05T08:24:01.380Z,36.79
2022-08-05T08:27:07.365Z,37.50
2022-08-05T08:30:27.648Z,36.81
2022-08-05T08:33:37.645Z,37.43
2022-08-05T08:36:48.819Z,36.35
2022-08-05T08:39:56.985Z,36.13
2022-08-05T08:45:16.448Z,35.68
2022-08-05T08:46:28.490Z,35.48
2022-08-05T08:50:22.252Z,35.47
2022-08-05T08:53:03.045Z,36.19
2022-08-05T08:56:12.514Z,35.74
2022-08-05T08:59:19.709Z,36.29
2022-08-05T09:02:26.891Z,36.63
2022-08-05T09:05:38.520Z,36.90
2022-08-05T09:08:52.580Z,35.26
2022-08-05T09:12:00.167Z,34.45
2022-08-05T09:15:07.503Z,34.20
2022-08-05T09:18:13.425Z,34.62
2022-08-05T09:21:21.229Z,34.08
2022-08-05T09:24:39.891Z,34.07
2022-08-05T09:28:03.800Z,33.27
2022-08-05T09:31:22.988Z,33.42
2022-08-05T09:34:47.712Z,32.81
2022-08-05T09:38:16.366Z,32.83
2022-08-05T09:41:16.170Z,33.25
2022-08-05T09:44:34.169Z,31.23
2022-08-05T09:47:55.457Z,32.21
2022-08-05T09:51:01.351Z,31.56
2022-08-05T09:54:06.794Z,31.95
2022-08-05T09:57:23.417Z,30.54
2022-08-05T10:00:30.387Z,30.54
2022-08-05T10:03:56.496Z,30.51
2022-08-05T10:06:59.928Z,30.33
2022-08-05T10:10:15.308Z,30.63
2022-08-05T10:13:43.872Z,30.49
2022-08-05T10:16:52.756Z,29.96
2022-08-05T10:20:02.805Z,29.98
2022-08-05T10:23:08.920Z,30.83
2022-08-05T10:26:31.638Z,30.49
2022-08-05T10:30:41.046Z,29.89
2022-08-05T10:33:02.783Z,29.04
2022-08-05T10:36:06.726Z,29.29
2022-08-05T10:39:24.425Z,29.92
2022-08-05T10:42:33.364Z,29.83
2022-08-05T10:45:40.098Z,29.50
2022-08-05T10:48:57.427Z,29.65
2022-08-05T10:52:03.252Z,29.73
2022-08-05T10:55:11.041Z,29.61
2022-08-05T10:58:20.529Z,28.66
2022-08-05T11:01:55.496Z,29.39
2022-08-05T11:04:56.325Z,27.20
2022-08-05T11:08:04.780Z,27.55
2022-08-05T11:11:52.143Z,28.87
2022-08-05T11:15:19.376Z,28.32
2022-08-05T11:18:29.986Z,28.14
2022-08-05T11:21:48.756Z,27.53
2022-08-05T11:26:05.145Z,28.22
2022-08-05T11:28:50.734Z,28.81
2022-08-05T11:32:27.311Z,28.48
2022-08-05T11:36:07.719Z,28.90
2022-08-05T11:39:13.747Z,27.53
2022-08-05T11:42:18.777Z,27.26
2022-08-05T11:45:26.853Z,27.58
2022-08-05T11:48:44.494Z,28.04
2022-08-05T11:51:49.903Z,27.47
2022-08-05T11:54:55.782Z,28.00
2022-08-05T11:58:10.254Z,28.27
2022-08-05T12:01:19.020Z,26.87
2022-08-05T12:04:22.339Z,27.54
2022-08-05T12:08:03.553Z,28.29
2022-08-05T12:10:50.639Z,27.71
2022-08-05T12:13:56.022Z,28.35
2022-08-05T12:18:00.582Z,29.37
2022-08-05T12:20:33.680Z,28.88
2022-08-05T12:23:36.770Z,28.61
2022-08-05T12:26:50.030Z,28.50
2022-08-05T12:30:03.602Z,29.36
2022-08-05T12:33:07.206Z,29.60
2022-08-05T12:36:29.916Z,29.49
2022-08-05T12:39:38.567Z,30.44
2022-08-05T12:42:43.066Z,30.29
2022-08-05T12:45:53.185Z,29.91
2022-08-05T12:49:01.337Z,29.37
2022-08-05T12:52:25.308Z,29.79
2022-08-05T12:55:32.762Z,29.97
2022-08-05T12:58:49.311Z,30.41
2022-08-05T13:02:07.637Z,30.51
2022-08-05T13:05:11.112Z,30.71
2022-08-05T13:08:19.364Z,31.17
2022-08-05T13:11:25.380Z,32.00
2022-08-05T13:15:05.070Z,31.84
2022-08-05T13:18:09.324Z,31.72
2022-08-05T13:21:12.653Z,31.71
2022-08-05T13:24:27.559Z,32.03
2022-08-05T13:27:42.390Z,31.21
2022-08-05T13:30:48.471Z,30.91
2022-08-05T13:34:22.158Z,30.51
2022-08-05T13:37:27.233Z,30.52
2022-08-05T13:40:51.352Z,29.51
2022-08-05T13:43:55.401Z,29.63
2022-08-05T13:47:04.617Z,27.96
2022-08-05T13:50:16.520Z,28.52
2022-08-05T13:53:19.679Z,27.70
2022-08-05T13:56:22.529Z,27.98
2022-08-05T13:59:27.204Z,28.35
2022-08-05T14:02:35.075Z,28.67
2022-08-05T14:10:00.440Z,29.88
2022-08-05T14:13:03.608Z,29.73
2022-08-05T14:16:11.643Z,28.86
2022-08-05T14:19:15.946Z,28.30
2022-08-05T14:22:18.633Z,28.88
2022-08-05T14:25:22.672Z,27.41
2022-08-05T14:28:31.782Z,27.83
2022-08-05T14:31:54.451Z,28.79
2022-08-05T14:34:58.566Z,30.13
2022-08-05T14:38:01.301Z,30.66
2022-08-05T14:41:06.955Z,30.28
2022-08-05T14:44:19.964Z,29.95
2022-08-05T14:48:02.432Z,30.83
2022-08-05T14:50:47.639Z,29.98
2022-08-05T14:54:26.328Z,30.52
2022-08-05T14:57:14.098Z,31.37
2022-08-05T15:00:17.231Z,31.75
2022-08-05T15:03:22.947Z,32.24
2022-08-05T15:06:30.212Z,32.17
2022-08-05T15:09:51.968Z,32.28
2022-08-05T15:13:01.220Z,33.06
2022-08-05T15:16:06.859Z,33.33
2022-08-05T15:19:14.377Z,33.49
2022-08-05T15:22:28.113Z,32.96
2022-08-05T15:25:51.219Z,33.50
2022-08-05T15:28:54.094Z,33.22
2022-08-05T15:31:56.931Z,33.75
2022-08-05T15:34:59.605Z,34.30
2022-08-05T15:38:36.110Z,33.94
2022-08-05T15:41:57.378Z,34.87
2022-08-05T15:44:59.625Z,35.55
2022-08-05T15:48:03.646Z,35.72
2022-08-05T15:51:06.828Z,36.41
2022-08-05T15:54:11.292Z,36.78
2022-08-05T15:57:18.037Z,37.00
2022-08-05T16:00:30.523Z,37.27
2022-08-05T16:03:44.809Z,37.39
2022-08-05T16:06:51.474Z,38.13
2022-08-05T16:09:55.539Z,37.56
2022-08-05T16:12:58.242Z,37.50
2022-08-05T16:16:00.918Z,37.68
2022-08-05T16:19:04.090Z,37.68
2022-08-05T16:22:10.607Z,37.62
2022-08-05T16:25:15.078Z,38.05
2022-08-05T16:28:18.278Z,38.81
2022-08-05T16:31:21.054Z,39.15
2022-08-05T16:34:25.170Z,39.43
2022-08-05T16:38:03.378Z,39.34
2022-08-05T16:40:59.825Z,39.99
2022-08-05T16:44:03.561Z,40.19
2022-08-05T16:47:07.625Z,41.34
2022-08-05T16:50:30.339Z,41.20
2022-08-05T16:54:05.365Z,41.65
2022-08-05T16:56:58.207Z,41.41
2022-08-05T17:00:07.750Z,41.70
2022-08-05T17:03:19.700Z,41.89
2022-08-05T17:06:24.801Z,42.99
2022-08-05T17:09:27.707Z,43.43
2022-08-05T17:12:51.120Z,43.72
2022-08-05T17:15:55.694Z,43.41
2022-08-05T17:19:10.807Z,43.87
2022-08-05T17:22:24.498Z,44.69
2022-08-05T17:25:34.074Z,44.99
2022-08-05T17:28:44.523Z,44.85
2022-08-05T17:31:58.564Z,44.61
2022-08-05T17:35:02.016Z,44.49
2022-08-05T17:38:08.018Z,45.53
2022-08-05T17:41:23.026Z,45.22
2022-08-05T17:44:35.339Z,46.10
2022-08-05T17:47:39.111Z,46.03
2022-08-05T17:50:42.589Z,47.02
2022-08-05T17:53:45.867Z,48.20
2022-08-05T17:56:57.313Z,48.43
2022-08-05T18:00:04.907Z,49.81
2022-08-05T18:03:08.710Z,51.17
2022-08-05T18:06:15.069Z,52.04
2022-08-05T18:09:18.279Z,52.33
2022-08-05T18:12:24.011Z,52.71
2022-08-05T18:15:31.221Z,53.07
2022-08-05T18:18:39.634Z,53.67
2022-08-05T18:22:08.891Z,53.76
2022-08-05T18:25:05.733Z,53.65
2022-08-05T18:28:09.972Z,54.32
2022-08-05T18:31:15.913Z,54.28
2022-08-05T18:34:21.651Z,54.47
2022-08-05T18:37:34.667Z,54.94
2022-08-05T18:41:57.003Z,54.99
2022-08-05T18:44:07.871Z,55.44
2022-08-05T18:47:13.069Z,55.09
2022-08-05T18:50:42.187Z,54.96
2022-08-05T18:53:50.769Z,55.29
2022-08-05T18:56:53.611Z,55.38
2022-08-05T19:00:03.561Z,55.92
2022-08-05T19:03:11.833Z,55.83
2022-08-05T19:06:20.089Z,55.99
2022-08-05T19:09:24.509Z,56.05
2022-08-05T19:12:28.016Z,55.93
2022-08-05T19:15:57.468Z,55.73
2022-08-05T19:18:56.413Z,55.86
2022-08-05T19:21:59.738Z,55.99
2022-08-05T19:25:03.491Z,55.01
2022-08-05T19:28:06.346Z,54.81
2022-08-05T19:31:09.529Z,54.88
2022-08-05T19:34:18.771Z,54.72
2022-08-05T19:37:21.614Z,55.00
2022-08-05T19:40:30.536Z,55.54
2022-08-05T19:44:05.888Z,54.75
2022-08-05T19:46:56.837Z,55.12
2022-08-05T19:50:01.955Z,55.23
2022-08-05T19:53:10.532Z,56.05
2022-08-05T19:56:20.710Z,56.54
2022-08-05T19:59:59.410Z,56.78
2022-08-05T20:02:53.600Z,58.37
2022-08-05T20:05:59.120Z,61.21
2022-08-05T20:09:17.653Z,63.96
2022-08-05T20:12:20.642Z,63.76
2022-08-05T20:15:52.034Z,66.61
2022-08-05T20:21:50.353Z,68.13
2022-08-05T20:24:53.098Z,68.98
2022-08-05T20:27:56.489Z,68.66
2022-08-05T20:31:00.389Z,69.17
2022-08-05T20:34:04.423Z,69.13
2022-08-05T20:37:17.957Z,69.26
2022-08-05T20:40:32.793Z,70.18
2022-08-05T20:43:58.729Z,70.13
2022-08-05T20:46:59.138Z,69.91
2022-08-05T20:50:02.580Z,70.57
2022-08-05T20:53:16.332Z,70.35
2022-08-05T20:56:42.287Z,70.17
2022-08-05T21:00:10.696Z,69.52
2022-08-05T21:03:08.367Z,69.96
2022-08-05T21:06:27.570Z,70.34
2022-08-05T21:09:33.763Z,70.86
2022-08-05T21:12:39.821Z,70.50
2022-08-05T21:16:01.233Z,70.94
2022-08-05T21:19:04.526Z,71.13
2022-08-05T21:22:09.462Z,70.96
2022-08-05T21:25:15.952Z,70.17
2022-08-05T21:28:23.994Z,70.39
2022-08-05T21:31:41.313Z,70.43
2022-08-05T21:34:44.903Z,71.54
2022-08-05T21:38:07.709Z,71.39
2022-08-05T21:41:12.091Z,70.91
2022-08-05T21:44:15.415Z,70.99
2022-08-05T21:47:54.902Z,71.27
2022-08-05T21:50:41.078Z,72.17
2022-08-05T21:53:43.786Z,70.99
2022-08-05T21:57:29.800Z,69.01
2022-08-05T22:00:26.592Z,68.99
2022-08-05T22:03:51.773Z,68.40
2022-08-05T22:06:52.339Z,66.45
2022-08-05T22:09:55.055Z,63.80
2022-08-05T22:13:08.545Z,62.02
2022-08-05T22:16:39.527Z,60.02
2022-08-05T22:20:00.332Z,60.90
2022-08-05T22:23:21.415Z,59.25
2022-08-05T22:26:41.874Z,59.03
2022-08-05T22:29:54.259Z,57.32
2022-08-05T22:32:57.056Z,58.83
2022-08-05T22:36:00.883Z,56.77
2022-08-05T22:39:09.455Z,56.26
2022-08-05T22:42:15.584Z,55.75
2022-08-05T22:45:30.687Z,55.14
2022-08-05T22:48:33.637Z,54.48
2022-08-05T22:52:06.019Z,54.09
2022-08-05T22:55:01.021Z,54.12
2022-08-05T22:58:04.245Z,54.27
2022-08-05T23:01:09.475Z,54.40
2022-08-05T23:04:12.125Z,53.35
2022-08-05T23:07:14.861Z,55.34
2022-08-05T23:10:19.921Z,54.46
2022-08-05T23:13:23.279Z,54.59
2022-08-05T23:16:44.055Z,54.33
2022-08-05T23:19:55.965Z,53.84
2022-08-05T23:22:59.163Z,53.51
2022-08-05T23:26:01.944Z,53.87
2022-08-05T23:29:05.757Z,52.85
2022-08-05T23:32:14.377Z,53.14
2022-08-05T23:35:17.407Z,54.18
2022-08-05T23:38:20.529Z,53.54
2022-08-05T23:41:23.482Z,53.96
2022-08-05T23:44:31.103Z,53.29
2022-08-05T23:47:35.799Z,53.88
2022-08-05T23:50:50.782Z,53.25
2022-08-05T23:53:54.084Z,52.95
2022-08-05T23:57:04.899Z,53.70
